South Newton, Pennsylvania
Current Conditions -  °F | °C
As of 11:53 AM on Monday 24 Nov 2014 (Local Time) from KRYT Reporting Station
Clear Clear  
Wind Chill: 65°   Ceiling: Unl
Heat Index: 65°   Visibility: 10mi
Dew Point: 53°   Wind: 12mph
Humidity: 65%   Direction: 230°SW
Pressure: 29.58"   Gusts: 24mph
Location:  40.0726°N, 77.4006°W
Report Text: KRYT 241653Z AUTO 23010G21KT 10SM CLR 18/12 A2958 RMK AO2 SLP014 T01830117 $
Loading
Personal Weather Stations






























Interactive Weather Map New forecast layout! Learn more

10-Day Weather Forecast

Advertisements
Track Severe Weather on mobile